ADDS METAR Data INFO
IDs: Format: Raw Decoded Include TAF

Data at: 1321 UTC 11 Dec 2017

KBWI 111254Z 00000KT 10SM BKN050 02/M02 A3007 RMK AO2 SLP184 T00221022
KBWI 111154Z 27004KT 10SM BKN050 BKN100 02/M03 A3006 RMK AO2 SLP179 4/001 T00221028 10028 20011 53011
KBWI 111054Z 24004KT 10SM BKN055 OVC100 02/M02 A3004 RMK AO2 SLP175 T00221022
KBWI 110954Z 00000KT 10SM BKN060 OVC100 02/M03 A3003 RMK AO2 SLP171 T00171033
KBWI 110854Z 00000KT 10SM BKN070 OVC100 01/M03 A3003 RMK AO2 SLP169 T00111033 50001
KBWI 110754Z 27003KT 10SM BKN065 BKN090 OVC160 02/M03 A3003 RMK AO2 SLP169 T00171033
KBWI 110654Z 29003KT 10SM FEW040 OVC065 02/M03 A3003 RMK AO2 SLP169 T00221033
KBWI 110554Z 19008KT 10SM FEW038 BKN065 OVC095 03/M04 A3002 RMK AO2 SLP167 VIRGA SW-NW 4/001 T00281039 10028 21006 58007
KBWI 110454Z 00000KT 10SM SCT080 OVC110 01/M02 A3005 RMK AO2 SLP176 T00111022 400391033
KBWI 110354Z 00000KT 10SM OVC110 01/M03 A3005 RMK AO2 SLP176 T00111028
KBWI 110254Z 21003KT 10SM OVC100 01/M04 A3004 RMK AO2 SLP175 BINOVC T00061039 58002
KBWI 110154Z 20004KT 10SM FEW110 BKN140 01/M04 A3005 RMK AO2 SLP178 T00061044
KBWI 110054Z 00000KT 10SM BKN140 00/M05 A3005 RMK AO2 SLP178 T00001050
KBWI 102354Z COR 21004KT 10SM FEW140 SCT200 02/M06 A3005 RMK AO2 SLP177 4/001 T00171056 10039 20006 53009
KBWI 102254Z 00000KT 10SM SCT110 SCT140 BKN200 02/M05 A3004 RMK AO2 SLP175 VIRGA N-NE AND SE T00221050
KBWI 102154Z 25006KT 10SM FEW140 BKN200 03/M06 A3003 RMK AO2 SLP169 VIRGA SW-W T00281056
KBWI 102054Z 26007KT 10SM FEW050 BKN200 03/M06 A3002 RMK AO2 SLP168 T00281056 56004
KBWI 101954Z 25011KT 10SM BKN046 BKN200 04/M05 A3003 RMK AO2 SLP169 T00391050
KBWI 101854Z 27015KT 10SM BKN045 03/M04 A3002 RMK AO2 SLP167 T00281044
KBWI 101754Z 26011KT 10SM BKN044 03/M04 A3004 RMK AO2 SLP172 4/001 T00331044 10033 21028 58002
KBWI 101654Z 26016G23KT 10SM SCT041 03/M05 A3004 RMK AO2 SLP175 T00281050
KBWI 101554Z 27012KT 10SM FEW044 02/M04 A3004 RMK AO2 SLP175 T00221044
KBWI 101454Z 21007KT 10SM SCT044 01/M03 A3004 RMK AO2 SLP174 T00111033 53020
KBWI 101354Z 21005KT 10SM BKN048 00/M04 A3002 RMK AO2 SLP168 T00001039
KBWI 101254Z 27007KT 10SM SCT120 M01/M04 A2999 RMK AO2 SLP158 T10111044
KBWI 101154Z 25008KT 9SM BKN050 BKN120 M02/M04 A2998 RMK AO2 SLP154 4/003 70023 T10171044 11017 21033 53030
KBWI 101054Z 25004KT 8SM FEW090 SCT120 SCT140 M03/M04 A2994 RMK AO2 SLP140 T10331044
KBWI 100954Z 24004KT 8SM FEW090 BKN140 M02/M03 A2991 RMK AO2 SLP130 T10221033
KBWI 100854Z 25007KT 8SM FEW100 BKN150 M02/M03 A2989 RMK AO2 SLP123 T10221033 51016
KBWI 100754Z 26006KT 7SM FEW100 BKN150 M02/M03 A2988 RMK AO2 SLP119 T10221033
KBWI 100654Z 25006KT 6SM BR FEW085 BKN150 M02/M03 A2986 RMK AO2 SLP113 T10171028
KBWI 100554Z 26006KT 5SM BR FEW085 BKN140 M02/M03 A2984 RMK AO2 SLP107 4/003 60001 T10171028 11011 21028 50007
KBWI 100454Z 26004KT 6SM BR BKN085 M02/M03 A2985 RMK AO2 SLP108 T10221028 400281022
KBWI 100354Z 25007KT 7SM BKN085 M02/M03 A2984 RMK AO2 SLP104 T10171028
KBWI 100254Z 26004KT 8SM FEW050 OVC075 M02/M03 A2982 RMK AO2 SLP100 60001 T10171028 53003
KBWI 100154Z 26004KT 7SM BKN044 BKN075 OVC100 M02/M02 A2982 RMK AO2 SNE20 SLP099 P0000 T10171022